sensor_id;sensor_type;location;lat;lon;timestamp;pressure;altitude;pressure_sealevel;temperature;humidity
25232;BME280;13176;51.140;6.290;2023-04-08T00:00:53;101406.44;;;11.94;80.34
25232;BME280;13176;51.140;6.290;2023-04-08T00:03:19;101473.31;;;12.20;81.07
25232;BME280;13176;51.140;6.290;2023-04-08T00:05:46;101458.53;;;12.18;80.83
25232;BME280;13176;51.140;6.290;2023-04-08T00:08:13;101473.25;;;12.34;80.54
25232;BME280;13176;51.140;6.290;2023-04-08T00:10:39;101486.28;;;12.38;80.80
25232;BME280;13176;51.140;6.290;2023-04-08T00:13:06;101461.94;;;12.24;80.37
25232;BME280;13176;51.140;6.290;2023-04-08T00:15:32;101403.81;;;11.91;80.40
25232;BME280;13176;51.140;6.290;2023-04-08T00:17:59;101479.50;;;12.16;81.02
25232;BME280;13176;51.140;6.290;2023-04-08T00:20:25;101496.78;;;12.34;80.93
25232;BME280;13176;51.140;6.290;2023-04-08T00:22:51;101475.88;;;12.29;80.37
25232;BME280;13176;51.140;6.290;2023-04-08T00:25:18;101510.56;;;12.53;80.16
25232;BME280;13176;51.140;6.290;2023-04-08T00:27:44;101484.59;;;12.31;80.74
25232;BME280;13176;51.140;6.290;2023-04-08T00:30:11;101471.56;;;12.24;80.31
25232;BME280;13176;51.140;6.290;2023-04-08T00:32:37;101511.44;;;12.52;80.26
25232;BME280;13176;51.140;6.290;2023-04-08T00:35:04;101512.41;;;12.44;80.82
25232;BME280;13176;51.140;6.290;2023-04-08T00:37:30;101506.34;;;12.38;80.42
25232;BME280;13176;51.140;6.290;2023-04-08T00:39:57;101454.22;;;12.11;80.68
25232;BME280;13176;51.140;6.290;2023-04-08T00:42:23;101390.88;;;11.74;80.68
25232;BME280;13176;51.140;6.290;2023-04-08T00:44:50;101450.72;;;12.15;80.99
25232;BME280;13176;51.140;6.290;2023-04-08T00:47:17;101472.41;;;12.29;80.70
25232;BME280;13176;51.140;6.290;2023-04-08T00:49:44;101483.72;;;12.34;80.43
25232;BME280;13176;51.140;6.290;2023-04-08T00:52:11;101482.00;;;12.27;80.70
25232;BME280;13176;51.140;6.290;2023-04-08T00:54:38;101482.06;;;12.21;80.76
25232;BME280;13176;51.140;6.290;2023-04-08T00:57:05;101458.69;;;12.00;80.80
25232;BME280;13176;51.140;6.290;2023-04-08T00:59:32;101487.25;;;12.27;80.79
25232;BME280;13176;51.140;6.290;2023-04-08T01:02:25;101522.78;;;12.51;80.59
25232;BME280;13176;51.140;6.290;2023-04-08T01:04:59;101525.56;;;12.34;81.34
25232;BME280;13176;51.140;6.290;2023-04-08T01:07:30;101497.75;;;12.21;81.57
25232;BME280;13176;51.140;6.290;2023-04-08T01:10:02;101505.59;;;12.21;81.79
25232;BME280;13176;51.140;6.290;2023-04-08T01:12:30;101497.78;;;12.18;82.01
25232;BME280;13176;51.140;6.290;2023-04-08T01:15:02;101459.59;;;11.93;82.16
25232;BME280;13176;51.140;6.290;2023-04-08T01:17:30;101493.47;;;12.11;82.48
25232;BME280;13176;51.140;6.290;2023-04-08T01:20:02;101518.66;;;12.27;82.43
25232;BME280;13176;51.140;6.290;2023-04-08T01:22:52;101527.41;;;12.23;82.84
25232;BME280;13176;51.140;6.290;2023-04-08T01:27:59;101501.28;;;12.14;82.76
25232;BME280;13176;51.140;6.290;2023-04-08T01:30:27;101507.41;;;12.13;83.09
25232;BME280;13176;51.140;6.290;2023-04-08T01:32:56;101509.06;;;12.21;82.90
25232;BME280;13176;51.140;6.290;2023-04-08T01:35:24;101500.44;;;12.12;83.05
25232;BME280;13176;51.140;6.290;2023-04-08T01:37:52;101511.72;;;12.20;83.17
25232;BME280;13176;51.140;6.290;2023-04-08T01:40:19;101501.34;;;12.05;83.45
25232;BME280;13176;51.140;6.290;2023-04-08T01:42:50;101534.31;;;12.33;83.26
25232;BME280;13176;51.140;6.290;2023-04-08T01:45:19;101475.34;;;11.87;83.71
25232;BME280;13176;51.140;6.290;2023-04-08T01:47:47;101504.84;;;12.04;84.06
25232;BME280;13176;51.140;6.290;2023-04-08T01:50:15;101534.41;;;12.18;84.56
25232;BME280;13176;51.140;6.290;2023-04-08T01:52:46;101544.00;;;12.17;84.34
25232;BME280;13176;51.140;6.290;2023-04-08T01:55:15;101425.94;;;11.37;85.71
25232;BME280;13176;51.140;6.290;2023-04-08T01:57:44;101540.59;;;12.06;85.71
25232;BME280;13176;51.140;6.290;2023-04-08T02:00:15;101482.41;;;11.70;86.60
25232;BME280;13176;51.140;6.290;2023-04-08T02:02:44;101418.19;;;11.24;86.40
25232;BME280;13176;51.140;6.290;2023-04-08T02:05:13;101531.97;;;11.91;86.70
25232;BME280;13176;51.140;6.290;2023-04-08T02:07:39;101484.22;;;11.62;86.77
25232;BME280;13176;51.140;6.290;2023-04-08T02:10:06;101530.28;;;11.82;87.32
25232;BME280;13176;51.140;6.290;2023-04-08T02:12:33;101542.44;;;11.88;87.51
25232;BME280;13176;51.140;6.290;2023-04-08T02:14:59;101471.19;;;11.45;87.77
25232;BME280;13176;51.140;6.290;2023-04-08T02:20:06;101492.94;;;11.58;88.05
25232;BME280;13176;51.140;6.290;2023-04-08T02:22:37;101545.09;;;11.82;88.75
25232;BME280;13176;51.140;6.290;2023-04-08T02:25:09;101527.69;;;11.75;88.53
25232;BME280;13176;51.140;6.290;2023-04-08T02:27:38;101520.75;;;11.68;88.61
25232;BME280;13176;51.140;6.290;2023-04-08T02:30:06;101504.25;;;11.58;89.24
25232;BME280;13176;51.140;6.290;2023-04-08T02:32:34;101513.78;;;11.67;88.89
25232;BME280;13176;51.140;6.290;2023-04-08T02:35:01;101503.38;;;11.64;88.87
25232;BME280;13176;51.140;6.290;2023-04-08T02:37:32;101499.88;;;11.60;89.13
25232;BME280;13176;51.140;6.290;2023-04-08T02:39:59;101531.19;;;11.68;89.44
25232;BME280;13176;51.140;6.290;2023-04-08T02:42:25;101487.72;;;11.46;89.52
25232;BME280;13176;51.140;6.290;2023-04-08T02:44:52;101510.38;;;11.59;89.76
25232;BME280;13176;51.140;6.290;2023-04-08T02:47:18;101545.09;;;11.79;89.81
25232;BME280;13176;51.140;6.290;2023-04-08T02:49:45;101524.28;;;11.61;90.02
25232;BME280;13176;51.140;6.290;2023-04-08T02:52:11;101413.03;;;11.00;89.83
25232;BME280;13176;51.140;6.290;2023-04-08T02:54:37;101423.47;;;11.09;89.74
25232;BME280;13176;51.140;6.290;2023-04-08T02:57:04;101516.44;;;11.61;90.11
25232;BME280;13176;51.140;6.290;2023-04-08T02:59:30;101482.53;;;11.40;90.44
25232;BME280;13176;51.140;6.290;2023-04-08T03:01:56;101449.53;;;11.21;90.46
25232;BME280;13176;51.140;6.290;2023-04-08T03:04:23;101459.09;;;11.28;90.38
25232;BME280;13176;51.140;6.290;2023-04-08T03:06:49;101490.34;;;11.46;90.66
25232;BME280;13176;51.140;6.290;2023-04-08T03:09:16;101457.34;;;11.26;90.75
25232;BME280;13176;51.140;6.290;2023-04-08T03:11:42;101482.50;;;11.46;90.54
25232;BME280;13176;51.140;6.290;2023-04-08T03:14:09;101431.31;;;11.03;90.90
25232;BME280;13176;51.140;6.290;2023-04-08T03:16:36;101546.88;;;11.74;91.11
25232;BME280;13176;51.140;6.290;2023-04-08T03:19:02;101535.59;;;11.64;90.99
25232;BME280;13176;51.140;6.290;2023-04-08T03:21:29;101531.25;;;11.65;91.22
25232;BME280;13176;51.140;6.290;2023-04-08T03:23:57;101517.31;;;11.60;91.29
25232;BME280;13176;51.140;6.290;2023-04-08T03:26:23;101527.78;;;11.63;91.73
25232;BME280;13176;51.140;6.290;2023-04-08T03:28:52;101514.72;;;11.57;91.62
25232;BME280;13176;51.140;6.290;2023-04-08T03:31:18;101454.81;;;11.06;92.19
25232;BME280;13176;51.140;6.290;2023-04-08T03:33:46;101510.38;;;11.44;92.63
25232;BME280;13176;51.140;6.290;2023-04-08T03:36:12;101534.75;;;11.49;92.87
25232;BME280;13176;51.140;6.290;2023-04-08T03:38:39;101527.78;;;11.48;92.72
25232;BME280;13176;51.140;6.290;2023-04-08T03:41:05;101498.22;;;11.37;92.74
25232;BME280;13176;51.140;6.290;2023-04-08T03:43:31;101484.34;;;11.26;93.27
25232;BME280;13176;51.140;6.290;2023-04-08T03:45:58;101539.09;;;11.57;92.89
25232;BME280;13176;51.140;6.290;2023-04-08T03:48:24;101513.06;;;11.31;93.55
25232;BME280;13176;51.140;6.290;2023-04-08T03:50:51;101465.25;;;11.09;92.87
25232;BME280;13176;51.140;6.290;2023-04-08T03:53:17;101463.50;;;11.14;93.00
25232;BME280;13176;51.140;6.290;2023-04-08T03:55:44;101538.25;;;11.54;93.04
25232;BME280;13176;51.140;6.290;2023-04-08T03:58:10;101481.75;;;11.19;92.73
25232;BME280;13176;51.140;6.290;2023-04-08T04:00:37;101504.28;;;11.45;92.73
25232;BME280;13176;51.140;6.290;2023-04-08T04:03:03;101460.84;;;11.22;92.85
25232;BME280;13176;51.140;6.290;2023-04-08T04:05:30;101539.91;;;11.73;92.80
25232;BME280;13176;51.140;6.290;2023-04-08T04:07:56;101550.34;;;11.76;92.42
25232;BME280;13176;51.140;6.290;2023-04-08T04:10:23;101516.47;;;11.58;92.78
25232;BME280;13176;51.140;6.290;2023-04-08T04:12:50;101545.13;;;11.73;92.71
25232;BME280;13176;51.140;6.290;2023-04-08T04:15:16;101523.41;;;11.65;92.55
25232;BME280;13176;51.140;6.290;2023-04-08T04:17:42;101552.06;;;11.80;92.33
25232;BME280;13176;51.140;6.290;2023-04-08T04:20:09;101540.84;;;11.63;92.86
25232;BME280;13176;51.140;6.290;2023-04-08T04:22:36;101563.44;;;11.70;93.13
25232;BME280;13176;51.140;6.290;2023-04-08T04:25:02;101548.63;;;11.66;92.99
25232;BME280;13176;51.140;6.290;2023-04-08T04:27:29;101508.66;;;11.40;93.05
25232;BME280;13176;51.140;6.290;2023-04-08T04:29:55;101470.44;;;11.18;93.01
25232;BME280;13176;51.140;6.290;2023-04-08T04:32:22;101560.81;;;11.70;92.74
25232;BME280;13176;51.140;6.290;2023-04-08T04:34:48;101559.06;;;11.75;92.58
25232;BME280;13176;51.140;6.290;2023-04-08T04:37:14;101593.03;;;11.84;93.09
25232;BME280;13176;51.140;6.290;2023-04-08T04:39:41;101574.75;;;11.75;92.76
25232;BME280;13176;51.140;6.290;2023-04-08T04:42:07;101564.31;;;11.76;92.63
25232;BME280;13176;51.140;6.290;2023-04-08T04:44:34;101566.91;;;11.76;93.02
25232;BME280;13176;51.140;6.290;2023-04-08T04:47:00;101564.31;;;11.72;92.93
25232;BME280;13176;51.140;6.290;2023-04-08T04:49:27;101558.25;;;11.59;93.14
25232;BME280;13176;51.140;6.290;2023-04-08T04:51:53;101486.97;;;11.22;93.03
25232;BME280;13176;51.140;6.290;2023-04-08T04:54:19;101548.69;;;11.49;92.87
25232;BME280;13176;51.140;6.290;2023-04-08T04:56:46;101521.75;;;11.38;93.11
25232;BME280;13176;51.140;6.290;2023-04-08T04:59:12;101569.59;;;11.63;93.20
25232;BME280;13176;51.140;6.290;2023-04-08T05:01:39;101583.50;;;11.72;92.70
25232;BME280;13176;51.140;6.290;2023-04-08T05:04:06;101581.75;;;11.70;93.01
25232;BME280;13176;51.140;6.290;2023-04-08T05:06:32;101583.50;;;11.66;93.26
25232;BME280;13176;51.140;6.290;2023-04-08T05:08:59;101593.94;;;11.75;93.08
25232;BME280;13176;51.140;6.290;2023-04-08T05:11:25;101552.16;;;11.53;92.92
25232;BME280;13176;51.140;6.290;2023-04-08T05:13:52;101573.91;;;11.70;92.97
25232;BME280;13176;51.140;6.290;2023-04-08T05:16:18;101578.25;;;11.71;93.18
25232;BME280;13176;51.140;6.290;2023-04-08T05:18:44;101590.44;;;11.76;93.16
25232;BME280;13176;51.140;6.290;2023-04-08T05:21:11;101602.63;;;11.82;92.88
25232;BME280;13176;51.140;6.290;2023-04-08T05:23:37;101632.22;;;11.93;92.73
25232;BME280;13176;51.140;6.290;2023-04-08T05:26:06;101535.66;;;11.43;92.91
25232;BME280;13176;51.140;6.290;2023-04-08T05:28:34;101600.88;;;11.84;92.93
25232;BME280;13176;51.140;6.290;2023-04-08T05:31:00;101528.69;;;11.41;93.03
25232;BME280;13176;51.140;6.290;2023-04-08T05:33:27;101533.03;;;11.39;92.84
25232;BME280;13176;51.140;6.290;2023-04-08T05:35:53;101572.19;;;11.67;92.63
25232;BME280;13176;51.140;6.290;2023-04-08T05:38:20;101565.22;;;11.65;92.30
25232;BME280;13176;51.140;6.290;2023-04-08T05:40:46;101619.16;;;11.90;93.15
25232;BME280;13176;51.140;6.290;2023-04-08T05:43:13;101588.72;;;11.71;92.72
25232;BME280;13176;51.140;6.290;2023-04-08T05:45:39;101600.00;;;11.79;92.68
25232;BME280;13176;51.140;6.290;2023-04-08T05:48:06;101545.22;;;11.46;92.69
25232;BME280;13176;51.140;6.290;2023-04-08T05:50:34;101590.44;;;11.72;93.05
25232;BME280;13176;51.140;6.290;2023-04-08T05:53:00;101641.75;;;12.03;93.35
25232;BME280;13176;51.140;6.290;2023-04-08T05:55:27;101552.19;;;11.50;92.91
25232;BME280;13176;51.140;6.290;2023-04-08T05:57:53;101638.31;;;11.98;92.61
25232;BME280;13176;51.140;6.290;2023-04-08T06:00:19;101587.84;;;11.73;93.15
25232;BME280;13176;51.140;6.290;2023-04-08T06:02:47;101614.75;;;11.98;92.54
25232;BME280;13176;51.140;6.290;2023-04-08T06:05:13;101645.22;;;12.06;92.53
25232;BME280;13176;51.140;6.290;2023-04-08T06:07:40;101632.19;;;11.99;92.52
25232;BME280;13176;51.140;6.290;2023-04-08T06:10:07;101611.34;;;11.82;93.01
25232;BME280;13176;51.140;6.290;2023-04-08T06:12:36;101648.72;;;12.08;92.77
25232;BME280;13176;51.140;6.290;2023-04-08T06:15:07;101637.38;;;12.02;92.78
25232;BME280;13176;51.140;6.290;2023-04-08T06:17:37;101657.44;;;12.07;92.91
25232;BME280;13176;51.140;6.290;2023-04-08T06:20:05;101650.47;;;12.06;92.85
25232;BME280;13176;51.140;6.290;2023-04-08T06:22:31;101594.81;;;11.71;92.52
25232;BME280;13176;51.140;6.290;2023-04-08T06:24:58;101648.69;;;12.13;92.71
25232;BME280;13176;51.140;6.290;2023-04-08T06:27:24;101641.75;;;12.07;93.28
25232;BME280;13176;51.140;6.290;2023-04-08T06:29:50;101647.75;;;12.23;92.55
25232;BME280;13176;51.140;6.290;2023-04-08T06:32:18;101659.94;;;12.30;92.06
25232;BME280;13176;51.140;6.290;2023-04-08T06:34:45;101653.84;;;12.31;92.64
25232;BME280;13176;51.140;6.290;2023-04-08T06:37:11;101655.53;;;12.33;92.66
25232;BME280;13176;51.140;6.290;2023-04-08T06:39:38;101616.41;;;12.14;92.51
25232;BME280;13176;51.140;6.290;2023-04-08T06:42:04;101645.97;;;12.34;91.85
25232;BME280;13176;51.140;6.290;2023-04-08T06:44:31;101592.09;;;12.00;91.83
25232;BME280;13176;51.140;6.290;2023-04-08T06:46:58;101582.50;;;11.97;92.13
25232;BME280;13176;51.140;6.290;2023-04-08T06:49:24;101650.31;;;12.35;91.80
25232;BME280;13176;51.140;6.290;2023-04-08T06:51:52;101655.59;;;12.26;92.04
25232;BME280;13176;51.140;6.290;2023-04-08T06:54:18;101679.91;;;12.46;92.30
25232;BME280;13176;51.140;6.290;2023-04-08T06:56:45;101656.41;;;12.37;92.32
25232;BME280;13176;51.140;6.290;2023-04-08T06:59:12;101665.13;;;12.40;91.52
25232;BME280;13176;51.140;6.290;2023-04-08T07:01:38;101678.16;;;12.42;91.04
25232;BME280;13176;51.140;6.290;2023-04-08T07:04:04;101673.78;;;12.47;91.61
25232;BME280;13176;51.140;6.290;2023-04-08T07:06:31;101586.91;;;11.85;90.46
25232;BME280;13176;51.140;6.290;2023-04-08T07:08:57;101666.00;;;12.39;91.31
25232;BME280;13176;51.140;6.290;2023-04-08T07:11:24;101679.91;;;12.43;90.47
25232;BME280;13176;51.140;6.290;2023-04-08T07:13:51;101622.50;;;12.17;89.94
25232;BME280;13176;51.140;6.290;2023-04-08T07:16:18;101663.31;;;12.49;90.61
25232;BME280;13176;51.140;6.290;2023-04-08T07:18:44;101687.66;;;12.66;89.82
25232;BME280;13176;51.140;6.290;2023-04-08T07:21:12;101684.97;;;12.71;90.16
25232;BME280;13176;51.140;6.290;2023-04-08T07:23:39;101696.25;;;12.83;90.25
25232;BME280;13176;51.140;6.290;2023-04-08T07:26:05;101611.88;;;12.41;89.73
25232;BME280;13176;51.140;6.290;2023-04-08T07:28:32;101638.78;;;12.62;88.99
25232;BME280;13176;51.140;6.290;2023-04-08T07:33:35;101626.56;;;12.64;87.78
25232;BME280;13176;51.140;6.290;2023-04-08T07:36:01;101604.69;;;12.67;87.76
25232;BME280;13176;51.140;6.290;2023-04-08T07:38:27;101668.00;;;13.24;88.12
25232;BME280;13176;51.140;6.290;2023-04-08T07:40:54;101696.72;;;13.39;87.25
25232;BME280;13176;51.140;6.290;2023-04-08T07:43:20;101686.09;;;13.48;85.92
25232;BME280;13176;51.140;6.290;2023-04-08T07:45:47;101678.22;;;13.53;85.42
25232;BME280;13176;51.140;6.290;2023-04-08T07:48:13;101703.47;;;13.61;83.95
25232;BME280;13176;51.140;6.290;2023-04-08T07:50:39;101610.53;;;13.06;83.46
25232;BME280;13176;51.140;6.290;2023-04-08T07:53:26;101734.84;;;13.71;82.72
25232;BME280;13176;51.140;6.290;2023-04-08T07:55:52;101656.72;;;13.16;83.29
25232;BME280;13176;51.140;6.290;2023-04-08T07:58:19;101679.47;;;13.13;83.51
25232;BME280;13176;51.140;6.290;2023-04-08T08:00:45;101720.47;;;13.15;84.61
25232;BME280;13176;51.140;6.290;2023-04-08T08:03:12;101691.84;;;12.90;85.40
25232;BME280;13176;51.140;6.290;2023-04-08T08:05:38;101734.38;;;13.29;85.28
25232;BME280;13176;51.140;6.290;2023-04-08T08:08:04;101747.34;;;13.47;85.73
25232;BME280;13176;51.140;6.290;2023-04-08T08:10:32;101715.00;;;13.45;85.60
25232;BME280;13176;51.140;6.290;2023-04-08T08:12:59;101710.44;;;13.65;84.50
25232;BME280;13176;51.140;6.290;2023-04-08T08:15:25;101732.91;;;13.87;83.32
25232;BME280;13176;51.140;6.290;2023-04-08T08:17:52;101622.50;;;13.31;80.84
25232;BME280;13176;51.140;6.290;2023-04-08T08:20:18;101752.78;;;14.15;79.69
25232;BME280;13176;51.140;6.290;2023-04-08T08:22:44;101726.63;;;14.03;80.48
25232;BME280;13176;51.140;6.290;2023-04-08T08:25:22;101730.25;;;13.90;80.66
25232;BME280;13176;51.140;6.290;2023-04-08T08:27:51;101679.78;;;13.70;79.79
25232;BME280;13176;51.140;6.290;2023-04-08T08:30:17;101723.19;;;13.98;80.39
25232;BME280;13176;51.140;6.290;2023-04-08T08:32:46;101745.78;;;14.17;79.52
25232;BME280;13176;51.140;6.290;2023-04-08T08:35:12;101717.59;;;14.28;80.44
25232;BME280;13176;51.140;6.290;2023-04-08T08:37:39;101734.38;;;14.81;80.07
25232;BME280;13176;51.140;6.290;2023-04-08T08:40:06;101737.81;;;14.87;76.93
25232;BME280;13176;51.140;6.290;2023-04-08T08:42:33;101729.25;;;14.74;73.08
25232;BME280;13176;51.140;6.290;2023-04-08T08:45:03;101761.44;;;14.90;72.89
25232;BME280;13176;51.140;6.290;2023-04-08T08:47:30;101750.19;;;14.80;72.23
25232;BME280;13176;51.140;6.290;2023-04-08T08:49:56;101715.34;;;14.66;70.79
25232;BME280;13176;51.140;6.290;2023-04-08T08:52:23;101641.75;;;14.02;72.59
25232;BME280;13176;51.140;6.290;2023-04-08T08:54:56;101762.56;;;14.72;71.49
25232;BME280;13176;51.140;6.290;2023-04-08T08:57:23;101752.81;;;14.80;71.32
25232;BME280;13176;51.140;6.290;2023-04-08T08:59:50;101647.25;;;14.54;66.70
25232;BME280;13176;51.140;6.290;2023-04-08T09:02:27;101768.69;;;15.32;66.31
25232;BME280;13176;51.140;6.290;2023-04-08T09:07:46;101656.38;;;14.26;66.09
25232;BME280;13176;51.140;6.290;2023-04-08T09:10:13;101693.50;;;14.62;67.84
25232;BME280;13176;51.140;6.290;2023-04-08T09:12:53;101709.97;;;14.75;67.20
25232;BME280;13176;51.140;6.290;2023-04-08T09:15:21;101644.00;;;14.34;66.79
25232;BME280;13176;51.140;6.290;2023-04-08T09:17:47;101748.22;;;14.93;66.26
25232;BME280;13176;51.140;6.290;2023-04-08T09:20:13;101684.13;;;14.45;67.03
25232;BME280;13176;51.140;6.290;2023-04-08T09:22:54;101751.53;;;15.07;66.48
25232;BME280;13176;51.140;6.290;2023-04-08T09:27:49;101752.66;;;15.47;65.50
25232;BME280;13176;51.140;6.290;2023-04-08T09:30:17;101774.97;;;15.75;66.19
25232;BME280;13176;51.140;6.290;2023-04-08T09:32:54;101794.13;;;15.83;66.65
25232;BME280;13176;51.140;6.290;2023-04-08T09:35:23;101795.78;;;15.90;66.53
25232;BME280;13176;51.140;6.290;2023-04-08T09:37:49;101794.97;;;15.85;66.84
25232;BME280;13176;51.140;6.290;2023-04-08T09:40:16;101710.16;;;15.68;67.33
25232;BME280;13176;51.140;6.290;2023-04-08T09:42:45;101799.84;;;16.06;63.98
25232;BME280;13176;51.140;6.290;2023-04-08T09:45:15;101791.28;;;15.95;63.69
25232;BME280;13176;51.140;6.290;2023-04-08T09:48:16;101801.69;;;16.02;63.95
25232;BME280;13176;51.140;6.290;2023-04-08T09:50:46;101769.94;;;15.63;64.61
25232;BME280;13176;51.140;6.290;2023-04-08T09:53:29;101759.88;;;15.86;64.34
25232;BME280;13176;51.140;6.290;2023-04-08T09:55:59;101768.72;;;15.82;64.68
25232;BME280;13176;51.140;6.290;2023-04-08T09:58:28;101661.94;;;15.18;61.93
25232;BME280;13176;51.140;6.290;2023-04-08T10:00:58;101790.56;;;15.87;63.49
25232;BME280;13176;51.140;6.290;2023-04-08T10:03:29;101722.28;;;15.78;62.42
25232;BME280;13176;51.140;6.290;2023-04-08T10:06:02;101790.97;;;16.57;61.73
25232;BME280;13176;51.140;6.290;2023-04-08T10:08:30;101792.75;;;16.56;63.79
25232;BME280;13176;51.140;6.290;2023-04-08T10:10:58;101780.56;;;16.51;64.65
25232;BME280;13176;51.140;6.290;2023-04-08T10:13:26;101761.25;;;16.05;64.04
25232;BME280;13176;51.140;6.290;2023-04-08T10:16:20;101774.31;;;15.64;64.66
25232;BME280;13176;51.140;6.290;2023-04-08T10:18:53;101778.31;;;15.33;65.44
25232;BME280;13176;51.140;6.290;2023-04-08T10:21:36;101776.47;;;15.38;65.50
25232;BME280;13176;51.140;6.290;2023-04-08T10:24:08;101806.78;;;15.63;65.53
25232;BME280;13176;51.140;6.290;2023-04-08T10:26:37;101752.97;;;15.29;65.14
25232;BME280;13176;51.140;6.290;2023-04-08T10:31:43;101751.31;;;15.74;64.34
25232;BME280;13176;51.140;6.290;2023-04-08T10:34:16;101802.66;;;15.97;64.76
25232;BME280;13176;51.140;6.290;2023-04-08T10:36:44;101737.06;;;15.35;65.13
25232;BME280;13176;51.140;6.290;2023-04-08T10:39:12;101706.66;;;15.18;65.18
25232;BME280;13176;51.140;6.290;2023-04-08T10:41:43;101776.66;;;15.81;65.30
25232;BME280;13176;51.140;6.290;2023-04-08T10:44:22;101663.31;;;15.41;64.92
25232;BME280;13176;51.140;6.290;2023-04-08T10:46:49;101742.88;;;15.54;64.34
25232;BME280;13176;51.140;6.290;2023-04-08T10:49:17;101774.03;;;15.79;64.53
25232;BME280;13176;51.140;6.290;2023-04-08T10:51:44;101793.22;;;16.34;64.96
25232;BME280;13176;51.140;6.290;2023-04-08T10:54:16;101723.13;;;16.24;63.90
25232;BME280;13176;51.140;6.290;2023-04-08T10:56:44;101702.19;;;16.18;62.59
25232;BME280;13176;51.140;6.290;2023-04-08T10:59:13;101740.56;;;17.10;60.52
25232;BME280;13176;51.140;6.290;2023-04-08T11:01:44;101616.72;;;17.38;58.00
25232;BME280;13176;51.140;6.290;2023-04-08T11:04:15;101788.38;;;18.93;58.32
25232;BME280;13176;51.140;6.290;2023-04-08T11:06:45;101725.13;;;18.28;56.06
25232;BME280;13176;51.140;6.290;2023-04-08T11:09:13;101671.16;;;17.42;58.36
25232;BME280;13176;51.140;6.290;2023-04-08T11:11:41;101673.56;;;17.16;57.62
25232;BME280;13176;51.140;6.290;2023-04-08T11:14:08;101698.72;;;16.95;55.87
25232;BME280;13176;51.140;6.290;2023-04-08T11:16:37;101782.19;;;17.70;56.77
25232;BME280;13176;51.140;6.290;2023-04-08T11:19:05;101780.28;;;18.08;56.63
25232;BME280;13176;51.140;6.290;2023-04-08T11:21:34;101653.44;;;17.47;56.50
25232;BME280;13176;51.140;6.290;2023-04-08T11:24:05;101722.34;;;17.69;58.51
25232;BME280;13176;51.140;6.290;2023-04-08T11:26:32;101702.44;;;17.57;56.54
25232;BME280;13176;51.140;6.290;2023-04-08T11:28:59;101776.19;;;17.63;56.32
25232;BME280;13176;51.140;6.290;2023-04-08T11:31:27;101768.91;;;17.38;57.01
25232;BME280;13176;51.140;6.290;2023-04-08T11:33:53;101720.47;;;17.04;56.96
25232;BME280;13176;51.140;6.290;2023-04-08T11:36:21;101658.50;;;16.49;58.73
25232;BME280;13176;51.140;6.290;2023-04-08T11:38:48;101786.53;;;17.00;60.05
25232;BME280;13176;51.140;6.290;2023-04-08T11:41:15;101590.84;;;15.69;58.68
25232;BME280;13176;51.140;6.290;2023-04-08T11:43:52;101709.16;;;16.63;56.80
25232;BME280;13176;51.140;6.290;2023-04-08T11:46:19;101679.56;;;16.50;53.93
25232;BME280;13176;51.140;6.290;2023-04-08T11:49:04;101719.75;;;16.98;54.38
25232;BME280;13176;51.140;6.290;2023-04-08T11:51:33;101673.78;;;16.73;55.36
25232;BME280;13176;51.140;6.290;2023-04-08T11:54:03;101790.53;;;17.15;54.77
25232;BME280;13176;51.140;6.290;2023-04-08T11:56:43;101812.13;;;16.54;56.40
25232;BME280;13176;51.140;6.290;2023-04-08T11:59:10;101678.94;;;15.96;56.01
25232;BME280;13176;51.140;6.290;2023-04-08T12:01:37;101787.22;;;17.08;55.42
25232;BME280;13176;51.140;6.290;2023-04-08T12:04:03;101658.78;;;16.75;55.85
25232;BME280;13176;51.140;6.290;2023-04-08T12:06:32;101703.69;;;17.43;55.00
25232;BME280;13176;51.140;6.290;2023-04-08T12:08:59;101683.03;;;17.60;52.77
25232;BME280;13176;51.140;6.290;2023-04-08T12:11:25;101694.31;;;17.65;52.16
25232;BME280;13176;51.140;6.290;2023-04-08T12:13:52;101684.41;;;17.73;49.93
25232;BME280;13176;51.140;6.290;2023-04-08T12:16:19;101759.72;;;18.51;50.12
25232;BME280;13176;51.140;6.290;2023-04-08T12:18:46;101737.16;;;18.38;48.21
25232;BME280;13176;51.140;6.290;2023-04-08T12:21:12;101730.25;;;18.34;49.13
25232;BME280;13176;51.140;6.290;2023-04-08T12:23:40;101655.38;;;18.03;49.97
25232;BME280;13176;51.140;6.290;2023-04-08T12:26:07;101743.38;;;18.66;50.31
25232;BME280;13176;51.140;6.290;2023-04-08T12:28:34;101715.84;;;18.73;49.25
25232;BME280;13176;51.140;6.290;2023-04-08T12:31:01;101765.69;;;18.57;48.21
25232;BME280;13176;51.140;6.290;2023-04-08T12:33:28;101674.09;;;18.26;48.25
25232;BME280;13176;51.140;6.290;2023-04-08T12:35:55;101763.34;;;18.47;48.68
25232;BME280;13176;51.140;6.290;2023-04-08T12:38:23;101743.56;;;18.60;49.53
25232;BME280;13176;51.140;6.290;2023-04-08T12:40:50;101661.97;;;18.19;49.38
25232;BME280;13176;51.140;6.290;2023-04-08T12:43:17;101744.97;;;19.28;48.22
25232;BME280;13176;51.140;6.290;2023-04-08T12:45:43;101765.19;;;19.82;46.87
25232;BME280;13176;51.140;6.290;2023-04-08T12:48:10;101672.38;;;19.59;45.93
25232;BME280;13176;51.140;6.290;2023-04-08T12:50:36;101752.72;;;20.57;43.79
25232;BME280;13176;51.140;6.290;2023-04-08T12:53:04;101699.84;;;19.56;42.73
25232;BME280;13176;51.140;6.290;2023-04-08T12:55:46;101752.97;;;19.26;44.58
25232;BME280;13176;51.140;6.290;2023-04-08T12:59:01;101745.41;;;18.85;46.89
25232;BME280;13176;51.140;6.290;2023-04-08T13:01:48;101679.09;;;18.64;47.25
25232;BME280;13176;51.140;6.290;2023-04-08T13:04:29;101749.31;;;18.74;47.02
25232;BME280;13176;51.140;6.290;2023-04-08T13:06:55;101662.47;;;18.01;47.24
25232;BME280;13176;51.140;6.290;2023-04-08T13:09:22;101723.00;;;18.10;48.09
25232;BME280;13176;51.140;6.290;2023-04-08T13:11:49;101676.91;;;17.58;47.38